Terminal Aerodrome Forecast
Issued by NWS Charleston, WV

Current Version | Previous Version | Text Only | Print | Product List | Glossary Off
Versions: 1 2 3 4 5 6 7 8 9 10 11 12 13 14 15 16 17 18 19 20 21 22

000
FTUS41 KRLX 280800 AAA
TAFEKN
TAF AMD
KEKN 280825Z 2808/2906 32005KT 2SM -SN OVC025
      TEMPO 2808/2810 1SM -SN OVC010
     FM281000 32005KT 6SM -SN BKN030
     FM281500 31005KT P6SM SCT035
     FM290400 31006KT P6SM SKC=

USA.gov is the U.S. government's official web portal to all federal, state and local government web resources and services.